createdAt,value
2018-04-10T00:01:17.258Z,98595.62
2018-04-10T00:03:43.172Z,98593.66
2018-04-10T00:06:09.097Z,98585.23
2018-04-10T00:08:35.021Z,98589.94
2018-04-10T00:11:00.940Z,98587.02
2018-04-10T00:13:26.869Z,98585.81
2018-04-10T00:15:52.819Z,98594.98
2018-04-10T00:18:18.774Z,98590.13
2018-04-10T00:20:44.696Z,98586.09
2018-04-10T00:23:10.647Z,98588.54
2018-04-10T00:25:36.595Z,98591.59
2018-04-10T00:28:02.537Z,98597.24
2018-04-10T00:30:28.511Z,98595.56
2018-04-10T00:32:54.474Z,98593.86
2018-04-10T00:35:20.425Z,98591.06
2018-04-10T00:37:46.473Z,98594.75
2018-04-10T00:40:12.447Z,98592.55
2018-04-10T00:42:38.388Z,98581.41
2018-04-10T00:45:04.352Z,98586.82
2018-04-10T00:47:30.292Z,98584.91
2018-04-10T00:49:56.234Z,98575.11
2018-04-10T00:52:22.176Z,98579.39
2018-04-10T00:54:48.118Z,98572.88
2018-04-10T00:57:14.062Z,98569.50
2018-04-10T00:59:40.050Z,98571.66
2018-04-10T01:02:06.009Z,98573.05
2018-04-10T01:04:32.025Z,98570.86
2018-04-10T01:06:57.968Z,98578.77
2018-04-10T01:09:23.884Z,98581.25
2018-04-10T01:11:49.807Z,98573.52
2018-04-10T01:14:15.732Z,98573.00
2018-04-10T01:16:41.678Z,98581.59
2018-04-10T01:19:07.615Z,98587.19
2018-04-10T01:21:33.550Z,98578.61
2018-04-10T01:23:59.490Z,98578.79
2018-04-10T01:26:25.446Z,98572.92
2018-04-10T01:28:51.406Z,98569.88
2018-04-10T01:31:17.346Z,98565.70
2018-04-10T01:33:43.290Z,98563.93
2018-04-10T01:36:09.220Z,98573.08
2018-04-10T01:38:35.159Z,98578.83
2018-04-10T01:41:01.131Z,98579.20
2018-04-10T01:43:27.096Z,98578.98
2018-04-10T01:45:53.054Z,98578.66
2018-04-10T01:48:19.008Z,98576.93
2018-04-10T01:50:44.963Z,98574.28
2018-04-10T01:53:10.885Z,98572.09
2018-04-10T01:55:36.806Z,98570.64
2018-04-10T01:58:02.745Z,98580.57
2018-04-10T02:00:28.681Z,98587.25
2018-04-10T02:02:54.646Z,98577.66
2018-04-10T02:05:20.571Z,98572.52
2018-04-10T02:07:46.519Z,98572.59
2018-04-10T02:10:12.475Z,98573.78
2018-04-10T02:12:38.397Z,98572.27
2018-04-10T02:15:04.362Z,98575.24
2018-04-10T02:17:30.347Z,98579.12
2018-04-10T02:19:56.268Z,98579.14
2018-04-10T02:22:22.215Z,98583.06
2018-04-10T02:24:48.142Z,98576.13
2018-04-10T02:27:14.100Z,98575.75
2018-04-10T02:29:40.053Z,98579.58
2018-04-10T02:32:05.981Z,98583.98
2018-04-10T02:34:31.925Z,98585.58
2018-04-10T02:36:57.851Z,98576.02
2018-04-10T02:39:23.798Z,98579.38
2018-04-10T02:41:49.755Z,98579.50
2018-04-10T02:44:15.719Z,98580.04
2018-04-10T02:46:41.673Z,98583.61
2018-04-10T02:49:07.625Z,98583.56
2018-04-10T02:51:33.573Z,98582.69
2018-04-10T02:53:59.517Z,98583.18
2018-04-10T02:56:25.452Z,98581.95
2018-04-10T02:58:51.407Z,98584.37
2018-04-10T03:01:17.327Z,98590.77
2018-04-10T03:03:43.258Z,98582.16
2018-04-10T03:06:09.201Z,98584.87
2018-04-10T03:08:35.137Z,98588.16
2018-04-10T03:11:01.123Z,98592.69
2018-04-10T03:13:27.077Z,98594.41
2018-04-10T03:15:53.019Z,98588.80
2018-04-10T03:18:18.987Z,98599.34
2018-04-10T03:20:44.985Z,98600.91
2018-04-10T03:23:10.927Z,98589.22
2018-04-10T03:25:36.855Z,98592.98
2018-04-10T03:28:02.779Z,98594.95
2018-04-10T03:30:28.697Z,98588.36
2018-04-10T03:32:54.612Z,98579.00
2018-04-10T03:35:20.553Z,98585.47
2018-04-10T03:37:46.511Z,98587.97
2018-04-10T03:40:12.512Z,98587.75
2018-04-10T03:42:38.455Z,98591.47
2018-04-10T03:45:04.441Z,98589.02
2018-04-10T03:47:30.373Z,98583.95
2018-04-10T03:49:56.322Z,98590.91
2018-04-10T03:52:22.266Z,98593.17
2018-04-10T03:54:48.208Z,98576.55
2018-04-10T03:57:14.162Z,98583.79
2018-04-10T03:59:40.114Z,98594.88
2018-04-10T04:02:06.066Z,98588.02
2018-04-10T04:04:31.984Z,98579.27
2018-04-10T04:06:57.914Z,98588.59
2018-04-10T04:09:23.855Z,98585.82
2018-04-10T04:11:49.782Z,98580.56
2018-04-10T04:14:15.716Z,98586.59
2018-04-10T04:16:41.842Z,98591.71
2018-04-10T04:19:07.792Z,98593.23
2018-04-10T04:21:33.748Z,98602.60
2018-04-10T04:23:59.676Z,98597.17
2018-04-10T04:26:25.640Z,98596.45
2018-04-10T04:28:51.582Z,98594.03
2018-04-10T04:31:17.507Z,98599.20
2018-04-10T04:33:43.456Z,98597.78
2018-04-10T04:36:09.404Z,98598.97
2018-04-10T04:38:35.372Z,98600.06
2018-04-10T04:41:01.304Z,98602.88
2018-04-10T04:43:27.248Z,98603.66
2018-04-10T04:45:53.192Z,98602.55
2018-04-10T04:48:19.155Z,98609.70
2018-04-10T04:50:45.110Z,98607.16
2018-04-10T04:53:11.064Z,98605.92
2018-04-10T04:55:37.027Z,98608.30
2018-04-10T04:58:02.956Z,98610.66
2018-04-10T05:00:28.898Z,98612.77
2018-04-10T05:02:54.840Z,98616.09
2018-04-10T05:05:20.811Z,98610.10
2018-04-10T05:07:46.762Z,98617.16
2018-04-10T05:10:12.724Z,98621.09
2018-04-10T05:12:38.654Z,98623.34
2018-04-10T05:15:04.632Z,98610.38
2018-04-10T05:17:30.572Z,98625.38
2018-04-10T05:19:56.520Z,98630.61
2018-04-10T05:22:22.487Z,98632.05
2018-04-10T05:24:48.420Z,98628.33
2018-04-10T05:27:14.368Z,98625.39
2018-04-10T05:29:40.316Z,98620.88
2018-04-10T05:32:06.399Z,98618.02
2018-04-10T05:34:32.428Z,98616.99
2018-04-10T05:36:58.376Z,98622.73
2018-04-10T05:39:24.398Z,98622.64
2018-04-10T05:41:50.352Z,98628.75
2018-04-10T05:44:16.296Z,98620.63
2018-04-10T05:46:42.238Z,98625.98
2018-04-10T05:49:08.265Z,98629.73
2018-04-10T05:51:34.282Z,98636.11
2018-04-10T05:54:00.336Z,98636.24
2018-04-10T05:56:26.324Z,98634.86
2018-04-10T05:58:52.369Z,98627.36
2018-04-10T06:01:18.408Z,98628.16
2018-04-10T06:03:44.345Z,98630.80
2018-04-10T06:06:10.300Z,98632.86
2018-04-10T06:08:36.358Z,98634.87
2018-04-10T06:11:02.412Z,98635.66
2018-04-10T06:13:28.368Z,98639.41
2018-04-10T06:15:54.327Z,98640.30
2018-04-10T06:18:20.353Z,98647.31
2018-04-10T06:20:46.298Z,98642.75
2018-04-10T06:23:12.231Z,98643.95
2018-04-10T06:25:38.183Z,98647.17
2018-04-10T06:28:04.147Z,98652.60
2018-04-10T06:30:30.136Z,98649.45
2018-04-10T06:32:56.086Z,98655.88
2018-04-10T06:35:22.032Z,98650.73
2018-04-10T06:37:48.001Z,98651.21
2018-04-10T06:40:13.926Z,98654.05
2018-04-10T06:42:40.862Z,98661.55
2018-04-10T06:45:06.814Z,98660.43
2018-04-10T06:47:32.748Z,98656.09
2018-04-10T06:49:58.760Z,98656.05
2018-04-10T06:52:24.716Z,98654.65
2018-04-10T06:54:50.656Z,98652.87
2018-04-10T06:57:16.601Z,98651.75
2018-04-10T06:59:42.574Z,98653.75
2018-04-10T07:02:08.552Z,98649.02
2018-04-10T07:04:34.480Z,98655.67
2018-04-10T07:07:00.408Z,98650.89
2018-04-10T07:09:26.333Z,98649.34
2018-04-10T07:11:52.270Z,98650.85
2018-04-10T07:14:18.214Z,98660.08
2018-04-10T07:16:44.220Z,98654.26
2018-04-10T07:19:10.225Z,98656.47
2018-04-10T07:21:36.153Z,98656.77
2018-04-10T07:24:02.093Z,98651.98
2018-04-10T07:26:28.055Z,98658.63
2018-04-10T07:28:54.009Z,98654.42
2018-04-10T07:31:20.001Z,98652.23
2018-04-10T07:33:46.030Z,98655.00
2018-04-10T07:36:11.994Z,98651.70
2018-04-10T07:38:37.933Z,98664.27
2018-04-10T07:41:03.897Z,98673.33
2018-04-10T07:43:29.872Z,98658.42
2018-04-10T07:45:55.809Z,98673.02
2018-04-10T07:48:21.755Z,98671.59
2018-04-10T07:50:47.713Z,98660.13
2018-04-10T07:53:13.680Z,98675.95
2018-04-10T07:55:39.605Z,98658.89
2018-04-10T07:58:05.557Z,98676.56
2018-04-10T08:00:31.566Z,98671.31
2018-04-10T08:02:57.520Z,98679.15
2018-04-10T08:05:23.478Z,98674.37
2018-04-10T08:07:49.436Z,98675.03
2018-04-10T08:10:15.372Z,98687.33
2018-04-10T08:12:41.335Z,98709.77
2018-04-10T08:15:07.295Z,98699.98
2018-04-10T08:17:33.267Z,98697.84
2018-04-10T08:19:59.208Z,98697.00
2018-04-10T08:22:25.145Z,98715.82
2018-04-10T08:24:51.080Z,98706.01
2018-04-10T08:27:17.034Z,98714.23
2018-04-10T08:29:43.011Z,98709.48
2018-04-10T08:32:09.021Z,98710.35
2018-04-10T08:34:35.008Z,98709.44
2018-04-10T08:37:01.044Z,98696.02
2018-04-10T08:39:27.087Z,98694.34
2018-04-10T08:41:53.108Z,98701.70
2018-04-10T08:44:19.158Z,98702.53
2018-04-10T08:46:45.137Z,98701.83
2018-04-10T08:49:11.092Z,98697.37
2018-04-10T08:51:37.025Z,98699.98
2018-04-10T08:54:02.997Z,98697.92
2018-04-10T08:56:29.028Z,98711.28
2018-04-10T08:58:54.972Z,98684.09
2018-04-10T09:01:20.893Z,98696.88
2018-04-10T09:03:46.841Z,98700.93
2018-04-10T09:06:12.827Z,98707.55
2018-04-10T09:08:38.769Z,98703.34
2018-04-10T09:11:04.783Z,98725.25
2018-04-10T09:13:30.725Z,98721.28
2018-04-10T09:15:56.666Z,98709.16
2018-04-10T09:18:22.663Z,98715.14
2018-04-10T09:20:48.613Z,98714.58
2018-04-10T09:23:14.537Z,98735.30
2018-04-10T09:25:40.481Z,98708.69
2018-04-10T09:28:06.579Z,98723.20
2018-04-10T09:30:32.535Z,98713.00
2018-04-10T09:32:58.469Z,98742.87
2018-04-10T09:35:24.539Z,98730.52
2018-04-10T09:37:50.519Z,98748.14
2018-04-10T09:40:16.469Z,98769.98
2018-04-10T09:42:42.412Z,98746.20
2018-04-10T09:45:08.348Z,98756.43
2018-04-10T09:47:34.285Z,98756.34
2018-04-10T09:50:01.287Z,98746.92
2018-04-10T09:52:27.233Z,98750.97
2018-04-10T09:54:53.160Z,98754.84
2018-04-10T09:57:19.076Z,98753.38
2018-04-10T09:59:45.052Z,98737.57
2018-04-10T10:02:11.017Z,98746.27
2018-04-10T10:04:36.980Z,98744.86
2018-04-10T10:07:02.924Z,98737.61
2018-04-10T10:09:28.863Z,98741.10
2018-04-10T10:11:54.834Z,98746.57
2018-04-10T10:14:20.778Z,98724.20
2018-04-10T10:16:46.740Z,98742.14
2018-04-10T10:19:12.682Z,98727.27
2018-04-10T10:21:38.634Z,98737.40
2018-04-10T10:24:04.571Z,98726.84
2018-04-10T10:26:30.524Z,98733.94
2018-04-10T10:28:56.460Z,98726.70
2018-04-10T10:31:22.388Z,98735.34
2018-04-10T10:33:48.354Z,98739.66
2018-04-10T10:36:14.301Z,98746.20
2018-04-10T10:38:40.304Z,98730.22
2018-04-10T10:41:06.254Z,98734.92
2018-04-10T10:43:32.209Z,98732.59
2018-04-10T10:45:58.174Z,98734.79
2018-04-10T10:48:24.125Z,98740.41
2018-04-10T10:50:50.060Z,98725.27
2018-04-10T10:53:15.994Z,98735.34
2018-04-10T10:55:41.956Z,98722.66
2018-04-10T11:00:40.263Z,98725.84
2018-04-10T11:03:06.276Z,98722.23
2018-04-10T11:05:32.211Z,98719.16
2018-04-10T11:07:58.167Z,98728.31
2018-04-10T11:10:24.159Z,98730.59
2018-04-10T11:12:50.137Z,98733.14
2018-04-10T11:15:16.091Z,98712.45
2018-04-10T11:17:42.029Z,98717.47
2018-04-10T11:20:07.963Z,98720.25
2018-04-10T11:22:33.911Z,98714.47
2018-04-10T11:24:59.837Z,98729.24
2018-04-10T11:27:25.820Z,98719.10
2018-04-10T11:29:51.853Z,98729.87
2018-04-10T11:32:17.877Z,98730.73
2018-04-10T11:34:43.817Z,98724.11
2018-04-10T11:37:09.789Z,98742.86
2018-04-10T11:39:35.754Z,98743.00
2018-04-10T11:42:01.691Z,98720.25
2018-04-10T11:44:27.642Z,98721.72
2018-04-10T11:46:53.676Z,98736.61
2018-04-10T11:49:19.621Z,98737.18
2018-04-10T11:51:45.559Z,98732.18
2018-04-10T11:54:11.522Z,98727.92
2018-04-10T11:56:37.479Z,98720.77
2018-04-10T11:59:03.440Z,98711.33
2018-04-10T12:01:29.418Z,98723.08
2018-04-10T12:03:55.407Z,98719.76
2018-04-10T12:06:21.374Z,98712.98
2018-04-10T12:08:47.389Z,98734.59
2018-04-10T12:11:13.353Z,98734.64
2018-04-10T12:13:39.319Z,98725.95
2018-04-10T12:16:05.283Z,98718.02
2018-04-10T12:18:31.199Z,98732.56
2018-04-10T12:20:57.167Z,98733.22
2018-04-10T12:23:23.135Z,98737.02
2018-04-10T12:25:49.275Z,98736.99
2018-04-10T12:28:15.247Z,98730.37
2018-04-10T12:30:41.203Z,98733.14
2018-04-10T12:33:07.183Z,98725.06
2018-04-10T12:35:33.151Z,98721.88
2018-04-10T12:37:59.097Z,98722.86
2018-04-10T12:40:25.063Z,98734.02
2018-04-10T12:42:51.017Z,98722.19
2018-04-10T12:45:17.046Z,98712.45
2018-04-10T12:47:42.992Z,98713.59
2018-04-10T12:50:08.964Z,98713.30
2018-04-10T12:52:34.915Z,98723.45
2018-04-10T12:55:00.888Z,98707.85
2018-04-10T12:57:26.858Z,98713.52
2018-04-10T12:59:52.824Z,98709.35
2018-04-10T13:02:18.838Z,98706.99
2018-04-10T13:04:44.753Z,98708.59
2018-04-10T13:07:10.744Z,98722.20
2018-04-10T13:09:36.694Z,98713.67
2018-04-10T13:12:02.634Z,98703.39
2018-04-10T13:14:28.606Z,98698.05
2018-04-10T13:16:54.641Z,98699.02
2018-04-10T13:19:20.586Z,98697.87
2018-04-10T13:21:46.542Z,98712.34
2018-04-10T13:24:12.488Z,98701.66
2018-04-10T13:26:38.476Z,98691.39
2018-04-10T13:29:04.407Z,98692.40
2018-04-10T13:31:30.374Z,98692.72
2018-04-10T13:33:56.314Z,98705.11
2018-04-10T13:36:22.267Z,98697.68
2018-04-10T13:38:48.249Z,98688.69
2018-04-10T13:41:14.209Z,98692.97
2018-04-10T13:43:40.187Z,98688.83
2018-04-10T13:46:06.157Z,98677.14
2018-04-10T13:48:32.135Z,98683.17
2018-04-10T13:50:58.104Z,98677.16
2018-04-10T13:53:24.108Z,98678.32
2018-04-10T13:55:50.096Z,98684.58
2018-04-10T13:58:16.170Z,98684.93
2018-04-10T14:00:42.165Z,98679.95
2018-04-10T14:03:08.185Z,98690.36
2018-04-10T14:05:35.230Z,98686.10
2018-04-10T14:08:01.260Z,98683.56
2018-04-10T14:10:27.281Z,98676.06
2018-04-10T14:12:53.294Z,98682.77
2018-04-10T14:15:19.349Z,98678.34
2018-04-10T14:17:45.356Z,98668.89
2018-04-10T14:20:11.417Z,98677.50
2018-04-10T14:22:37.386Z,98677.64
2018-04-10T14:25:03.444Z,98679.23
2018-04-10T14:27:29.489Z,98657.38
2018-04-10T14:29:55.561Z,98676.48
2018-04-10T14:32:21.627Z,98672.00
2018-04-10T14:34:47.704Z,98665.42
2018-04-10T14:37:13.732Z,98672.37
2018-04-10T14:39:39.789Z,98673.95
2018-04-10T14:42:05.813Z,98677.73
2018-04-10T14:44:31.847Z,98672.59
2018-04-10T14:46:57.857Z,98684.35
2018-04-10T14:49:23.967Z,98658.85
2018-04-10T14:51:50.007Z,98655.80
2018-04-10T14:54:16.042Z,98660.52
2018-04-10T14:56:42.029Z,98659.88
2018-04-10T14:59:08.076Z,98655.16
2018-04-10T15:01:34.077Z,98653.22
2018-04-10T15:04:00.113Z,98662.02
2018-04-10T15:06:26.130Z,98657.80
2018-04-10T15:08:52.158Z,98651.96
2018-04-10T15:11:18.204Z,98655.64
2018-04-10T15:13:44.210Z,98661.98
2018-04-10T15:16:10.228Z,98658.00
2018-04-10T15:18:36.253Z,98664.20
2018-04-10T15:21:02.302Z,98664.20
2018-04-10T15:23:28.310Z,98654.47
2018-04-10T15:25:54.362Z,98661.20
2018-04-10T15:28:20.334Z,98666.92
2018-04-10T15:30:46.372Z,98672.33
2018-04-10T15:33:12.415Z,98653.56
2018-04-10T15:35:38.358Z,98659.46
2018-04-10T15:38:04.314Z,98663.09
2018-04-10T15:40:30.270Z,98673.55
2018-04-10T15:42:56.254Z,98684.73
2018-04-10T15:45:22.242Z,98689.91
2018-04-10T15:47:48.216Z,98686.05
2018-04-10T15:50:14.171Z,98675.13
2018-04-10T15:52:40.134Z,98677.89
2018-04-10T15:55:06.154Z,98688.05
2018-04-10T15:57:32.102Z,98670.59
2018-04-10T15:59:58.129Z,98688.36
2018-04-10T16:02:24.208Z,98676.66
2018-04-10T16:04:50.182Z,98690.23
2018-04-10T16:07:16.138Z,98696.03
2018-04-10T16:09:42.162Z,98694.27
2018-04-10T16:12:08.145Z,98692.30
2018-04-10T16:14:34.110Z,98695.98
2018-04-10T16:17:00.093Z,98694.78
2018-04-10T16:19:26.056Z,98693.30
2018-04-10T16:21:52.008Z,98690.95
2018-04-10T16:24:17.977Z,98692.59
2018-04-10T16:26:44.011Z,98693.55
2018-04-10T16:29:09.962Z,98693.58
2018-04-10T16:31:35.922Z,98695.34
2018-04-10T16:34:01.858Z,98690.25
2018-04-10T16:36:27.800Z,98692.94
2018-04-10T16:38:53.758Z,98692.95
2018-04-10T16:41:19.754Z,98694.23
2018-04-10T17:05:50.880Z,98718.99
2018-04-10T17:08:16.820Z,98714.67
2018-04-10T17:10:42.790Z,98729.14
2018-04-10T17:13:08.720Z,98720.77
2018-04-10T17:15:34.640Z,98725.81
2018-04-10T17:18:00.568Z,98725.64
2018-04-10T17:20:26.551Z,98719.89
2018-04-10T17:22:52.508Z,98725.58
2018-04-10T17:25:18.436Z,98727.87
2018-04-10T17:27:44.408Z,98724.18
2018-04-10T17:30:10.469Z,98731.20
2018-04-10T17:32:36.399Z,98725.47
2018-04-10T17:35:02.437Z,98729.47
2018-04-10T17:37:28.405Z,98731.38
2018-04-10T17:39:54.338Z,98735.50
2018-04-10T17:42:20.353Z,98738.66
2018-04-10T17:44:46.289Z,98739.08
2018-04-10T17:47:12.273Z,98739.53
2018-04-10T17:49:38.223Z,98743.86
2018-04-10T17:52:04.227Z,98751.23
2018-04-10T17:54:30.371Z,98748.98
2018-04-10T17:56:56.326Z,98749.41
2018-04-10T17:59:22.326Z,98752.16
2018-04-10T18:01:48.309Z,98754.81
2018-04-10T18:04:14.228Z,98762.03
2018-04-10T18:06:40.193Z,98761.45
2018-04-10T18:09:06.155Z,98766.51
2018-04-10T18:11:32.136Z,98772.53
2018-04-10T18:13:59.082Z,98774.68
2018-04-10T18:16:25.032Z,98778.48
2018-04-10T18:18:51.003Z,98781.12
2018-04-10T18:21:16.951Z,98785.20
2018-04-10T18:23:42.897Z,98790.39
2018-04-10T18:26:08.830Z,98791.81
2018-04-10T18:28:34.820Z,98801.79
2018-04-10T18:31:00.791Z,98800.69
2018-04-10T18:33:26.750Z,98810.47
2018-04-10T18:35:52.702Z,98813.16
2018-04-10T18:38:18.662Z,98817.95
2018-04-10T18:40:44.615Z,98827.16
2018-04-10T18:43:10.658Z,98832.05
2018-04-10T18:45:36.616Z,98829.27
2018-04-10T18:48:02.563Z,98844.84
2018-04-10T18:50:28.530Z,98851.11
2018-04-10T18:52:54.505Z,98857.45
2018-04-10T18:55:20.490Z,98857.52
2018-04-10T18:57:46.481Z,98855.33
2018-04-10T19:00:12.475Z,98852.19
2018-04-10T19:02:38.434Z,98854.89
2018-04-10T19:05:04.395Z,98862.73
2018-04-10T19:07:30.338Z,98855.44
2018-04-10T19:09:56.310Z,98857.43
2018-04-10T19:12:22.283Z,98868.38
2018-04-10T19:14:48.249Z,98873.00
2018-04-10T19:17:14.208Z,98872.64
2018-04-10T19:19:40.156Z,98878.17
2018-04-10T19:22:06.122Z,98875.52
2018-04-10T19:24:32.092Z,98875.67
2018-04-10T19:26:58.055Z,98869.07
2018-04-10T19:29:23.996Z,98879.81
2018-04-10T19:31:49.950Z,98873.51
2018-04-10T19:34:15.920Z,98868.83
2018-04-10T19:36:41.865Z,98882.78
2018-04-10T19:39:07.838Z,98880.84
2018-04-10T19:41:34.075Z,98881.88
2018-04-10T19:44:00.015Z,98886.92
2018-04-10T19:46:25.969Z,98886.56
2018-04-10T19:48:51.917Z,98889.71
2018-04-10T19:51:17.883Z,98892.38
2018-04-10T19:53:43.816Z,98900.16
2018-04-10T19:56:09.813Z,98898.94
2018-04-10T19:58:35.788Z,98902.82
2018-04-10T20:01:01.812Z,98898.56
2018-04-10T20:03:27.787Z,98898.08
2018-04-10T20:05:53.713Z,98901.97
2018-04-10T20:08:19.691Z,98902.92
2018-04-10T20:10:45.623Z,98901.42
2018-04-10T20:13:11.574Z,98900.73
2018-04-10T20:15:37.545Z,98902.61
2018-04-10T20:18:03.532Z,98900.06
2018-04-10T20:20:29.486Z,98896.55
2018-04-10T20:22:55.476Z,98894.72
2018-04-10T20:25:21.457Z,98899.55
2018-04-10T20:27:47.410Z,98897.81
2018-04-10T20:30:13.338Z,98891.72
2018-04-10T20:32:39.303Z,98891.84
2018-04-10T20:35:05.236Z,98895.08
2018-04-10T20:37:33.277Z,98887.28
2018-04-10T20:39:59.249Z,98898.63
2018-04-10T20:42:25.201Z,98900.22
2018-04-10T20:44:51.172Z,98900.86
2018-04-10T20:47:17.107Z,98902.55
2018-04-10T20:49:43.044Z,98898.53
2018-04-10T20:52:08.969Z,98899.66
2018-04-10T20:54:34.917Z,98898.18
2018-04-10T20:57:00.862Z,98900.18
2018-04-10T20:59:26.801Z,98904.53
2018-04-10T21:01:52.737Z,98905.42
2018-04-10T21:04:18.675Z,98908.89
2018-04-10T21:06:44.645Z,98910.59
2018-04-10T21:09:10.676Z,98916.11
2018-04-10T21:11:36.609Z,98918.33
2018-04-10T21:14:02.551Z,98923.22
2018-04-10T21:16:28.483Z,98925.81
2018-04-10T21:18:54.748Z,98926.87
2018-04-10T21:21:20.705Z,98925.38
2018-04-10T21:23:46.668Z,98929.88
2018-04-10T21:26:12.628Z,98932.09
2018-04-10T21:28:38.558Z,98932.31
2018-04-10T21:31:04.506Z,98937.77
2018-04-10T21:33:30.476Z,98936.56
2018-04-10T21:35:56.404Z,98936.61
2018-04-10T21:38:22.452Z,98935.80
2018-04-10T21:40:48.407Z,98929.02
2018-04-10T21:43:14.404Z,98935.05
2018-04-10T21:45:40.312Z,98931.72
2018-04-10T21:48:06.272Z,98939.13
2018-04-10T21:50:32.222Z,98936.81
2018-04-10T21:52:58.156Z,98939.69
2018-04-10T21:55:24.108Z,98942.77
2018-04-10T21:57:50.033Z,98939.21
2018-04-10T22:00:16.119Z,98944.94
2018-04-10T22:02:42.078Z,98941.05
2018-04-10T22:05:08.071Z,98944.13
2018-04-10T22:07:34.024Z,98944.77
2018-04-10T22:09:59.962Z,98938.60
2018-04-10T22:12:25.899Z,98939.40
2018-04-10T22:14:51.829Z,98944.91
2018-04-10T22:17:17.761Z,98946.08
2018-04-10T22:19:43.721Z,98958.14
2018-04-10T22:22:09.660Z,98961.99
2018-04-10T22:24:35.619Z,98959.34
2018-04-10T22:27:01.549Z,98958.05
2018-04-10T22:29:27.512Z,98964.11
2018-04-10T22:31:53.460Z,98956.97
2018-04-10T22:34:19.373Z,98953.26
2018-04-10T22:36:45.313Z,98954.63
2018-04-10T22:39:11.279Z,98955.44
2018-04-10T22:41:37.239Z,98964.08
2018-04-10T22:44:03.170Z,98958.84
2018-04-10T22:46:29.136Z,98957.81
2018-04-10T22:48:55.083Z,98952.81
2018-04-10T22:51:21.004Z,98959.27
2018-04-10T22:53:46.974Z,98950.64
2018-04-10T22:56:12.900Z,98956.48
2018-04-10T22:58:38.861Z,98958.13
2018-04-10T23:01:04.813Z,98957.75
2018-04-10T23:03:30.823Z,98952.55
2018-04-10T23:05:56.733Z,98952.81
2018-04-10T23:08:22.727Z,98945.10
2018-04-10T23:10:48.682Z,98944.26
2018-04-10T23:13:14.659Z,98950.69
2018-04-10T23:15:40.647Z,98953.32
2018-04-10T23:18:06.588Z,98953.98
2018-04-10T23:20:32.522Z,98954.20
2018-04-10T23:22:58.461Z,98953.02
2018-04-10T23:25:24.411Z,98953.22
2018-04-10T23:27:50.377Z,98953.16
2018-04-10T23:30:16.314Z,98942.64
2018-04-10T23:32:42.276Z,98944.59
2018-04-10T23:35:08.236Z,98945.09
2018-04-10T23:37:34.168Z,98939.16
2018-04-10T23:40:00.116Z,98942.81
2018-04-10T23:42:26.117Z,98941.48
2018-04-10T23:44:52.066Z,98938.55
2018-04-10T23:47:18.024Z,98938.45
2018-04-10T23:49:43.964Z,98938.59
2018-04-10T23:52:09.911Z,98940.02
2018-04-10T23:54:35.874Z,98942.76
2018-04-10T23:57:01.809Z,98943.02
2018-04-10T23:59:27.732Z,98945.22
